createdAt,value
2023-03-01T00:01:35.881Z,6.23
2023-03-01T00:04:37.618Z,5.33
2023-03-01T00:07:39.286Z,6.30
2023-03-01T00:10:40.964Z,6.63
2023-03-01T00:13:43.958Z,6.07
2023-03-01T00:16:46.801Z,6.00
2023-03-01T00:19:48.427Z,6.20
2023-03-01T00:22:50.083Z,6.10
2023-03-01T00:25:52.337Z,5.83
2023-03-01T00:28:56.453Z,5.73
2023-03-01T00:31:58.179Z,6.70
2023-03-01T00:35:00.098Z,6.60
2023-03-01T00:38:01.984Z,6.63
2023-03-01T00:41:11.297Z,6.63
2023-03-01T00:44:13.025Z,6.50
2023-03-01T00:47:14.981Z,6.10
2023-03-01T00:50:17.243Z,6.20
2023-03-01T00:53:18.945Z,6.10
2023-03-01T00:56:20.810Z,6.13
2023-03-01T00:59:22.560Z,6.07
2023-03-01T01:02:24.582Z,5.80
2023-03-01T01:05:26.432Z,5.50
2023-03-01T01:08:28.097Z,5.43
2023-03-01T01:11:31.148Z,5.60
2023-03-01T01:14:33.165Z,5.60
2023-03-01T01:17:34.926Z,6.13
2023-03-01T01:20:37.698Z,6.43
2023-03-01T01:23:41.216Z,5.83
2023-03-01T01:26:43.184Z,6.07
2023-03-01T01:29:44.976Z,5.40
2023-03-01T01:32:46.644Z,5.90
2023-03-01T01:35:48.476Z,5.93
2023-03-01T01:38:50.431Z,5.73
2023-03-01T01:41:52.165Z,5.90
2023-03-01T01:45:32.722Z,5.77
2023-03-01T01:48:44.423Z,5.63
2023-03-01T01:51:49.939Z,5.37
2023-03-01T01:55:11.368Z,5.73
2023-03-01T01:58:18.797Z,6.20
2023-03-01T02:01:21.228Z,5.97
2023-03-01T02:04:23.709Z,5.70
2023-03-01T02:07:26.557Z,5.37
2023-03-01T02:10:29.501Z,5.63
2023-03-01T02:13:33.006Z,5.77
2023-03-01T02:16:35.276Z,6.03
2023-03-01T02:20:10.736Z,5.87
2023-03-01T02:23:13.138Z,5.40
2023-03-01T02:26:43.203Z,5.93
2023-03-01T02:29:45.003Z,6.00
2023-03-01T02:32:48.318Z,6.13
2023-03-01T02:35:50.145Z,6.20
2023-03-01T02:38:57.060Z,5.97
2023-03-01T02:41:59.920Z,5.67
2023-03-01T02:45:01.720Z,5.43
2023-03-01T02:48:03.534Z,5.47
2023-03-01T02:51:22.786Z,6.10
2023-03-01T02:54:42.388Z,6.33
2023-03-01T02:57:46.340Z,5.40
2023-03-01T03:00:50.357Z,5.27
2023-03-01T03:03:52.045Z,6.10
2023-03-01T03:06:53.870Z,5.57
2023-03-01T03:09:55.539Z,5.47
2023-03-01T03:13:03.188Z,5.47
2023-03-01T03:16:05.519Z,5.90
2023-03-01T03:19:07.242Z,5.83
2023-03-01T03:22:09.923Z,5.60
2023-03-01T03:25:11.569Z,5.47
2023-03-01T03:28:13.269Z,5.37
2023-03-01T03:31:14.986Z,5.67
2023-03-01T03:34:19.004Z,5.43
2023-03-01T03:37:39.467Z,5.80
2023-03-01T03:40:42.638Z,5.90
2023-03-01T03:43:44.658Z,5.97
2023-03-01T03:46:46.306Z,4.90
2023-03-01T03:49:48.201Z,5.27
2023-03-01T03:52:49.844Z,4.97
2023-03-01T03:55:52.555Z,5.40
2023-03-01T03:58:54.276Z,5.70
2023-03-01T04:01:55.958Z,6.00
2023-03-01T04:04:57.801Z,6.07
2023-03-01T04:08:02.753Z,5.20
2023-03-01T04:11:24.489Z,5.43
2023-03-01T04:14:26.152Z,5.00
2023-03-01T04:17:28.364Z,5.30
2023-03-01T04:20:34.466Z,5.40
2023-03-01T04:23:36.910Z,5.90
2023-03-01T04:26:38.625Z,5.60
2023-03-01T04:29:40.263Z,5.83
2023-03-01T04:32:42.184Z,5.97
2023-03-01T04:35:44.130Z,5.23
2023-03-01T04:38:49.731Z,5.73
2023-03-01T04:41:51.486Z,6.07
2023-03-01T04:44:53.240Z,6.10
2023-03-01T04:47:55.332Z,5.50
2023-03-01T04:50:57.014Z,5.83
2023-03-01T04:53:58.893Z,6.07
2023-03-01T04:57:01.256Z,5.70
2023-03-01T05:00:20.803Z,5.27
2023-03-01T05:03:22.775Z,5.40
2023-03-01T05:06:24.570Z,5.53
2023-03-01T05:09:26.281Z,6.43
2023-03-01T05:12:27.936Z,5.53
2023-03-01T05:15:31.858Z,5.07
2023-03-01T05:18:34.989Z,6.03
2023-03-01T05:21:58.220Z,5.40
2023-03-01T05:25:00.442Z,5.20
2023-03-01T05:28:05.300Z,5.57
2023-03-01T05:31:10.634Z,5.60
2023-03-01T05:34:13.857Z,5.30
2023-03-01T05:37:16.039Z,5.80
2023-03-01T05:40:21.399Z,5.40
2023-03-01T05:43:23.357Z,5.83
2023-03-01T05:46:25.490Z,5.50
2023-03-01T05:49:27.319Z,5.80
2023-03-01T05:52:29.022Z,5.80
2023-03-01T05:55:32.033Z,5.57
2023-03-01T05:58:33.761Z,5.37
2023-03-01T06:01:36.283Z,5.67
2023-03-01T06:04:38.114Z,5.77
2023-03-01T06:07:40.383Z,5.60
2023-03-01T06:10:42.171Z,5.63
2023-03-01T06:13:45.204Z,5.13
2023-03-01T06:16:46.847Z,6.40
2023-03-01T06:19:48.547Z,5.23
2023-03-01T06:22:50.753Z,5.50
2023-03-01T06:25:53.049Z,5.23
2023-03-01T06:28:54.706Z,5.30
2023-03-01T06:31:56.397Z,5.53
2023-03-01T06:34:59.497Z,5.37
2023-03-01T06:38:02.855Z,5.17
2023-03-01T06:41:04.931Z,5.20
2023-03-01T06:44:06.598Z,4.90
2023-03-01T06:47:08.280Z,5.23
2023-03-01T06:50:10.786Z,5.47
2023-03-01T06:53:12.535Z,4.47
2023-03-01T06:56:14.331Z,4.77
2023-03-01T06:59:16.723Z,5.20
2023-03-01T07:02:18.467Z,4.77
2023-03-01T07:05:21.863Z,4.73
2023-03-01T07:08:23.576Z,4.80
2023-03-01T07:11:25.537Z,5.20
2023-03-01T07:14:27.460Z,4.60
2023-03-01T07:17:29.112Z,4.70
2023-03-01T07:20:30.815Z,5.30
2023-03-01T07:23:32.845Z,4.77
2023-03-01T07:26:34.881Z,4.87
2023-03-01T07:29:37.584Z,5.07
2023-03-01T07:32:39.438Z,5.03
2023-03-01T07:35:41.248Z,5.57
2023-03-01T07:38:42.885Z,6.60
2023-03-01T07:41:44.582Z,7.33
2023-03-01T07:44:46.225Z,5.47
2023-03-01T07:47:47.988Z,6.30
2023-03-01T07:50:49.706Z,7.03
2023-03-01T07:53:51.410Z,5.67
2023-03-01T07:56:53.226Z,5.50
2023-03-01T07:59:54.848Z,6.00
2023-03-01T08:03:00.831Z,5.80
2023-03-01T08:06:08.664Z,6.17
2023-03-01T08:09:10.412Z,6.10
2023-03-01T08:12:12.162Z,5.77
2023-03-01T08:15:13.985Z,6.30
2023-03-01T08:18:16.666Z,6.90
2023-03-01T08:21:20.492Z,6.07
2023-03-01T08:24:22.178Z,6.13
2023-03-01T08:27:24.643Z,7.53
2023-03-01T08:30:26.396Z,6.40
2023-03-01T08:33:28.273Z,7.10
2023-03-01T08:36:36.702Z,6.47
2023-03-01T08:39:38.418Z,6.47
2023-03-01T08:42:46.637Z,6.80
2023-03-01T08:45:49.799Z,6.30
2023-03-01T08:48:51.567Z,6.53
2023-03-01T08:51:53.236Z,6.30
2023-03-01T08:55:06.865Z,6.03
2023-03-01T08:58:08.528Z,6.57
2023-03-01T09:01:11.935Z,6.20
2023-03-01T09:04:15.573Z,5.60
2023-03-01T09:07:17.326Z,5.93
2023-03-01T09:10:19.156Z,7.57
2023-03-01T09:13:20.806Z,6.30
2023-03-01T09:16:23.691Z,6.20
2023-03-01T09:19:27.311Z,6.10
2023-03-01T09:22:29.153Z,6.27
2023-03-01T09:25:30.819Z,6.93
2023-03-01T09:28:32.875Z,7.17
2023-03-01T09:31:34.621Z,6.17
2023-03-01T09:34:56.244Z,7.00
2023-03-01T09:37:57.931Z,7.13
2023-03-01T09:41:02.008Z,6.27
2023-03-01T09:44:12.610Z,6.60
2023-03-01T09:47:28.305Z,7.73
2023-03-01T09:50:37.059Z,7.30
2023-03-01T09:53:38.964Z,6.50
2023-03-01T09:56:47.679Z,7.60
2023-03-01T10:00:21.052Z,8.00
2023-03-01T10:03:40.289Z,7.27
2023-03-01T10:06:52.854Z,7.73
2023-03-01T10:09:54.593Z,7.23
2023-03-01T10:12:57.777Z,7.90
2023-03-01T10:16:11.315Z,7.73
2023-03-01T10:19:21.754Z,7.50
2023-03-01T10:22:29.334Z,7.57
2023-03-01T10:25:49.656Z,7.37
2023-03-01T10:29:02.851Z,7.70
2023-03-01T10:32:07.752Z,7.77
2023-03-01T10:35:28.442Z,7.60
2023-03-01T10:38:32.684Z,8.00
2023-03-01T10:41:34.385Z,7.97
2023-03-01T10:44:45.336Z,8.30
2023-03-01T10:47:46.982Z,8.40
2023-03-01T10:50:51.326Z,7.63
2023-03-01T10:53:54.038Z,7.63
2023-03-01T10:56:58.787Z,6.23
2023-03-01T11:00:23.586Z,6.93
2023-03-01T11:03:38.796Z,5.90
2023-03-01T11:06:44.184Z,6.37
2023-03-01T11:09:45.875Z,6.13
2023-03-01T11:12:47.672Z,5.87
2023-03-01T11:16:08.704Z,6.20
2023-03-01T11:19:10.385Z,6.33
2023-03-01T11:22:18.850Z,6.60
2023-03-01T11:25:28.757Z,6.10
2023-03-01T11:28:31.381Z,6.30
2023-03-01T11:31:34.603Z,5.77
2023-03-01T11:34:50.095Z,6.30
2023-03-01T11:38:00.481Z,5.80
2023-03-01T11:41:08.953Z,6.53
2023-03-01T11:44:26.364Z,6.53
2023-03-01T11:47:49.484Z,6.43
2023-03-01T11:50:51.857Z,6.97
2023-03-01T11:54:45.375Z,6.33
2023-03-01T11:58:11.172Z,6.43
2023-03-01T12:01:54.423Z,6.80
2023-03-01T12:05:02.272Z,6.80
2023-03-01T12:08:11.735Z,7.27
2023-03-01T12:11:13.421Z,6.80
2023-03-01T12:14:26.894Z,7.37
2023-03-01T12:17:45.800Z,7.40
2023-03-01T12:21:19.240Z,7.57
2023-03-01T12:24:32.863Z,7.23
2023-03-01T12:28:02.359Z,6.90
2023-03-01T12:31:16.905Z,7.03
2023-03-01T12:34:37.124Z,7.40
2023-03-01T12:37:47.802Z,7.33
2023-03-01T12:41:14.149Z,6.83
2023-03-01T12:44:21.650Z,7.20
2023-03-01T12:47:59.281Z,6.87
2023-03-01T12:51:05.679Z,6.50
2023-03-01T12:54:20.717Z,7.03
2023-03-01T12:57:27.940Z,6.77
2023-03-01T13:00:59.559Z,6.53
2023-03-01T13:04:19.512Z,6.13
2023-03-01T13:07:29.651Z,6.53
2023-03-01T13:10:42.151Z,6.83
2023-03-01T13:13:43.884Z,7.37
2023-03-01T13:16:46.439Z,6.30
2023-03-01T13:20:00.878Z,6.47
2023-03-01T13:23:10.305Z,6.47
2023-03-01T13:26:19.416Z,6.50
2023-03-01T13:29:48.230Z,6.47
2023-03-01T13:32:50.020Z,5.73
2023-03-01T13:35:51.961Z,6.13
2023-03-01T13:38:58.267Z,5.87
2023-03-01T13:42:02.035Z,6.50
2023-03-01T13:45:05.598Z,6.20
2023-03-01T13:48:22.178Z,5.83
2023-03-01T13:51:28.262Z,5.60
2023-03-01T13:54:32.871Z,5.60
2023-03-01T13:57:36.834Z,5.80
2023-03-01T14:00:40.965Z,6.00
2023-03-01T14:03:43.378Z,5.80
2023-03-01T14:06:47.107Z,5.23
2023-03-01T14:09:55.168Z,5.97
2023-03-01T14:13:23.893Z,5.87
2023-03-01T14:16:50.093Z,5.60
2023-03-01T14:19:58.247Z,5.40
2023-03-01T14:23:09.912Z,5.47
2023-03-01T14:26:13.111Z,5.77
2023-03-01T14:29:37.826Z,5.50
2023-03-01T14:32:40.270Z,5.50
2023-03-01T14:35:42.732Z,6.13
2023-03-01T14:38:46.974Z,6.20
2023-03-01T14:41:49.157Z,6.37
2023-03-01T14:44:52.690Z,5.67
2023-03-01T14:47:56.574Z,6.10
2023-03-01T14:50:58.499Z,5.40
2023-03-01T14:54:00.327Z,6.70
2023-03-01T14:57:02.774Z,5.53
2023-03-01T15:00:07.973Z,5.80
2023-03-01T15:03:18.438Z,5.80
2023-03-01T15:06:22.618Z,5.83
2023-03-01T15:09:24.538Z,6.13
2023-03-01T15:12:37.093Z,5.63
2023-03-01T15:15:50.894Z,6.33
2023-03-01T15:19:01.387Z,6.83
2023-03-01T15:22:13.070Z,5.10
2023-03-01T15:25:35.043Z,5.23
2023-03-01T15:28:43.728Z,5.50
2023-03-01T15:31:57.133Z,5.00
2023-03-01T15:35:40.336Z,4.73
2023-03-01T15:38:54.136Z,4.47
2023-03-01T15:41:56.389Z,4.83
2023-03-01T15:45:21.742Z,4.67
2023-03-01T15:48:26.531Z,4.80
2023-03-01T15:51:31.512Z,4.03
2023-03-01T15:54:33.771Z,4.37
2023-03-01T15:57:35.397Z,3.97
2023-03-01T16:00:37.496Z,4.13
2023-03-01T16:03:39.166Z,4.00
2023-03-01T16:06:40.904Z,4.10
2023-03-01T16:09:44.801Z,4.03
2023-03-01T16:12:48.374Z,4.33
2023-03-01T16:15:50.137Z,4.37
2023-03-01T16:18:54.288Z,4.03
2023-03-01T16:21:57.062Z,4.13
2023-03-01T16:24:58.837Z,4.53
2023-03-01T16:28:04.948Z,4.37
2023-03-01T16:31:06.935Z,4.77
2023-03-01T16:34:08.979Z,4.23
2023-03-01T16:37:10.638Z,4.60
2023-03-01T16:40:18.465Z,4.70
2023-03-01T16:43:20.412Z,4.37
2023-03-01T16:46:29.536Z,4.63
2023-03-01T16:49:31.216Z,4.63
2023-03-01T16:52:34.066Z,4.40
2023-03-01T16:55:37.399Z,4.73
2023-03-01T16:58:40.486Z,4.77
2023-03-01T17:01:44.461Z,4.67
2023-03-01T17:04:46.771Z,4.93
2023-03-01T17:07:48.476Z,5.07
2023-03-01T17:10:50.189Z,4.73
2023-03-01T17:13:51.898Z,4.70
2023-03-01T17:16:53.919Z,4.77
2023-03-01T17:19:55.736Z,5.07
2023-03-01T17:22:57.536Z,4.47
2023-03-01T17:25:59.537Z,5.00
2023-03-01T17:29:01.770Z,6.37
2023-03-01T17:32:03.962Z,5.20
2023-03-01T17:35:07.947Z,4.70
2023-03-01T17:38:09.647Z,4.90
2023-03-01T17:41:12.113Z,5.30
2023-03-01T17:44:13.765Z,5.73
2023-03-01T17:47:15.404Z,5.30
2023-03-01T17:50:17.251Z,5.40
2023-03-01T17:53:19.012Z,5.30
2023-03-01T17:56:20.869Z,5.27
2023-03-01T17:59:22.742Z,5.07
2023-03-01T18:02:26.487Z,5.67
2023-03-01T18:05:31.552Z,5.57
2023-03-01T18:08:34.083Z,5.07
2023-03-01T18:11:36.255Z,5.33
2023-03-01T18:14:38.028Z,6.10
2023-03-01T18:17:39.822Z,5.73
2023-03-01T18:20:41.602Z,6.00
2023-03-01T18:23:43.363Z,5.60
2023-03-01T18:26:45.119Z,5.40
2023-03-01T18:29:46.796Z,5.33
2023-03-01T18:32:48.641Z,5.57
2023-03-01T18:35:50.522Z,5.87
2023-03-01T18:38:56.110Z,5.57
2023-03-01T18:41:57.845Z,5.23
2023-03-01T18:44:59.724Z,4.83
2023-03-01T18:48:01.775Z,5.57
2023-03-01T18:51:12.469Z,5.23
2023-03-01T18:54:14.495Z,5.20
2023-03-01T18:57:16.268Z,5.47
2023-03-01T19:00:18.748Z,5.73
2023-03-01T19:03:20.404Z,5.50
2023-03-01T19:06:23.437Z,5.20
2023-03-01T19:09:25.201Z,5.20
2023-03-01T19:12:28.170Z,5.63
2023-03-01T19:15:30.989Z,5.57
2023-03-01T19:18:33.950Z,5.70
2023-03-01T19:21:36.218Z,5.67
2023-03-01T19:24:38.033Z,6.13
2023-03-01T19:27:39.813Z,6.07
2023-03-01T19:30:41.544Z,5.60
2023-03-01T19:33:43.281Z,5.63
2023-03-01T19:36:45.816Z,5.97
2023-03-01T19:39:48.007Z,5.40
2023-03-01T19:42:49.740Z,5.57
2023-03-01T19:45:53.566Z,5.70
2023-03-01T19:48:57.047Z,5.13
2023-03-01T19:51:59.738Z,5.53
2023-03-01T19:55:09.524Z,5.20
2023-03-01T19:58:12.156Z,5.17
2023-03-01T20:01:16.015Z,5.37
2023-03-01T20:04:17.829Z,5.00
2023-03-01T20:07:20.461Z,5.60
2023-03-01T20:10:22.171Z,5.07
2023-03-01T20:13:24.038Z,5.10
2023-03-01T20:16:26.837Z,5.73
2023-03-01T20:19:28.674Z,5.33
2023-03-01T20:22:30.735Z,5.73
2023-03-01T20:25:32.545Z,5.87
2023-03-01T20:28:35.512Z,5.43
2023-03-01T20:31:38.553Z,5.97
2023-03-01T20:34:40.254Z,5.53
2023-03-01T20:37:41.894Z,5.53
2023-03-01T20:40:43.528Z,5.37
2023-03-01T20:43:53.624Z,5.50
2023-03-01T20:46:55.460Z,5.40
2023-03-01T20:50:01.222Z,5.40
2023-03-01T20:53:02.886Z,5.37
2023-03-01T20:56:10.877Z,4.97
2023-03-01T20:59:12.912Z,5.13
2023-03-01T21:02:14.677Z,5.50
2023-03-01T21:05:16.618Z,6.27
2023-03-01T21:08:18.308Z,5.30
2023-03-01T21:11:26.256Z,5.13
2023-03-01T21:14:28.682Z,5.37
2023-03-01T21:17:30.396Z,5.30
2023-03-01T21:20:32.091Z,4.80
2023-03-01T21:23:35.468Z,5.30
2023-03-01T21:26:37.409Z,4.90
2023-03-01T21:29:41.153Z,5.80
2023-03-01T21:32:42.848Z,5.63
2023-03-01T21:35:44.538Z,5.23
2023-03-01T21:38:48.596Z,5.60
2023-03-01T21:41:50.378Z,5.33
2023-03-01T21:44:52.032Z,5.37
2023-03-01T21:47:53.665Z,5.37
2023-03-01T21:50:57.392Z,5.63
2023-03-01T21:54:01.178Z,5.47
2023-03-01T21:57:02.990Z,5.77
2023-03-01T22:00:05.105Z,5.07
2023-03-01T22:03:07.032Z,5.50
2023-03-01T22:06:08.895Z,5.63
2023-03-01T22:09:17.545Z,5.40
2023-03-01T22:12:19.200Z,5.97
2023-03-01T22:15:20.967Z,5.43
2023-03-01T22:18:22.613Z,5.63
2023-03-01T22:21:25.012Z,5.60
2023-03-01T22:24:27.166Z,5.73
2023-03-01T22:27:30.816Z,5.43
2023-03-01T22:30:32.586Z,6.07
2023-03-01T22:33:34.339Z,5.27
2023-03-01T22:36:36.303Z,5.53
2023-03-01T22:39:37.959Z,5.27
2023-03-01T22:42:39.744Z,5.60
2023-03-01T22:45:41.456Z,5.63
2023-03-01T22:48:43.289Z,4.83
2023-03-01T22:51:47.407Z,5.73
2023-03-01T22:54:49.096Z,6.17
2023-03-01T22:57:51.931Z,5.63
2023-03-01T23:00:53.588Z,5.87
2023-03-01T23:03:55.952Z,6.20
2023-03-01T23:06:58.446Z,6.10
2023-03-01T23:10:02.348Z,6.10
2023-03-01T23:13:04.086Z,5.43
2023-03-01T23:16:06.464Z,5.03
2023-03-01T23:19:09.079Z,5.43
2023-03-01T23:22:10.799Z,5.47
2023-03-01T23:25:13.176Z,5.93
2023-03-01T23:28:14.919Z,5.80
2023-03-01T23:31:17.019Z,5.57
2023-03-01T23:34:19.172Z,5.40
2023-03-01T23:37:21.126Z,5.57
2023-03-01T23:40:22.776Z,5.27
2023-03-01T23:43:24.412Z,5.40
2023-03-01T23:46:29.722Z,5.33
2023-03-01T23:49:31.593Z,5.30
2023-03-01T23:52:39.335Z,5.23
2023-03-01T23:55:51.171Z,4.97
2023-03-01T23:58:54.492Z,4.90
